X  Luk Metar data     EKYT Aalborg Airport
Temperatur
21°C Temperatur
14°C Dugpunkt
64% Fugtighed



Vind
11 KM/T
7 MPT
3 M/S
6 KNOB



180°
S
Nuværende forhold

Klart Klart
Tryk 1010.92 (hPa) - 29.85 (inHg)
Sigt 6.2 (mil) - 10 (km)
Lufthavn
Lufthavnskode EKYT

Lokation: Aalborg Airport
Afstand: 54 (km)

Metar:
EKYT 010620Z AUTO 18006KT 9999 NCD 21/14 Q1011

Tid: 01-07-2022 08:20 CEST